Time;durP1;ratioP1;P1;durP2;ratioP2;P2;SDS_P1;SDS_P2;PMS_P1;PMS_P2;Temp;Humidity;BMP_temperature;BMP_pressure;BME280_temperature;BME280_humidity;BME280_pressure;Samples;Min_cycle;Max_cycle;Signal;HPM_P1;HPM_P2
2022/08/19 00:02:23;;;;;;;3.95;3.75;;;24.00;66.30;;;;;;5050169;28;20215;-76
2022/08/19 00:04:52;;;;;;;3.92;3.72;;;24.00;67.30;;;;;;5047287;28;20171;-75
2022/08/19 00:07:19;;;;;;;4.05;3.78;;;23.90;69.00;;;;;;5045151;28;20263;-75
2022/08/19 00:09:45;;;;;;;4.32;3.95;;;23.80;67.10;;;;;;5040690;28;20218;-76
2022/08/19 00:12:12;;;;;;;3.72;3.53;;;23.70;66.90;;;;;;5043248;28;20207;-76
2022/08/19 00:14:39;;;;;;;3.85;3.65;;;23.70;65.60;;;;;;5050429;28;20263;-76
2022/08/19 00:17:06;;;;;;;4.00;3.15;;;23.70;65.90;;;;;;5049034;28;20180;-75
2022/08/19 00:19:32;;;;;;;3.47;3.35;;;23.60;65.70;;;;;;5044873;28;20269;-75
2022/08/19 00:21:58;;;;;;;4.38;4.07;;;23.60;65.90;;;;;;5045359;28;20195;-75
2022/08/19 00:24:23;;;;;;;3.88;3.58;;;23.60;66.10;;;;;;5047689;28;20191;-75
2022/08/19 00:26:50;;;;;;;3.00;3.00;;;23.60;65.70;;;;;;5048329;28;20195;-75
2022/08/19 00:29:19;;;;;;;3.75;3.45;;;23.60;66.50;;;;;;5050005;28;20196;-75
2022/08/19 00:31:45;;;;;;;3.67;3.42;;;23.60;66.90;;;;;;5049382;28;20184;-75
2022/08/19 00:34:13;;;;;;;4.65;3.83;;;23.60;67.30;;;;;;5051546;28;20184;-74
2022/08/19 00:36:40;;;;;;;5.32;3.22;;;23.60;66.90;;;;;;5053856;28;20190;-75
2022/08/19 00:39:07;;;;;;;3.97;3.78;;;23.60;67.90;;;;;;5050960;28;20203;-76
2022/08/19 00:41:33;;;;;;;3.92;3.65;;;23.60;68.50;;;;;;5047967;28;20701;-76
2022/08/19 00:44:10;;;;;;;4.35;3.60;;;23.50;68.30;;;;;;5048635;28;20298;-76
2022/08/19 00:46:38;;;;;;;4.43;4.13;;;23.50;67.20;;;;;;5047154;28;20246;-76
2022/08/19 00:49:10;;;;;;;4.75;4.07;;;23.50;67.00;;;;;;5050670;28;20194;-76
2022/08/19 00:51:36;;;;;;;4.68;4.10;;;23.40;67.20;;;;;;5049925;28;20247;-76
2022/08/19 00:54:02;;;;;;;4.03;3.67;;;23.40;68.40;;;;;;5055892;28;20202;-75
2022/08/19 00:56:28;;;;;;;3.65;3.45;;;23.40;68.20;;;;;;5052524;28;20214;-75
2022/08/19 00:58:56;;;;;;;3.58;3.42;;;23.40;67.80;;;;;;5047057;28;20223;-76
2022/08/19 01:01:22;;;;;;;3.53;3.42;;;23.30;67.50;;;;;;5055647;28;20638;-76
2022/08/19 01:03:47;;;;;;;3.78;3.63;;;23.30;67.80;;;;;;5049822;28;20183;-76
2022/08/19 01:06:14;;;;;;;3.92;3.78;;;23.30;69.30;;;;;;5047431;28;20646;-76
2022/08/19 01:08:40;;;;;;;3.75;3.58;;;23.30;68.10;;;;;;5048251;28;20583;-75
2022/08/19 01:11:07;;;;;;;3.95;3.75;;;23.20;68.30;;;;;;5046092;28;20194;-75
2022/08/19 01:13:34;;;;;;;4.18;3.97;;;23.20;68.00;;;;;;5049695;28;20262;-75
2022/08/19 01:16:06;;;;;;;4.20;3.90;;;23.10;68.00;;;;;;5050348;28;20589;-75
2022/08/19 01:18:35;;;;;;;4.30;4.00;;;23.10;68.50;;;;;;5045668;28;20211;-75
2022/08/19 01:21:06;;;;;;;4.70;4.50;;;23.10;68.70;;;;;;5050813;28;20203;-75
2022/08/19 01:23:44;;;;;;;4.55;4.25;;;23.10;68.90;;;;;;5048891;28;20651;-75
2022/08/19 01:26:16;;;;;;;4.43;4.03;;;23.00;68.60;;;;;;5048830;28;20199;-75
2022/08/19 01:28:45;;;;;;;3.63;3.42;;;23.00;69.20;;;;;;5046519;28;20259;-75
2022/08/19 01:31:16;;;;;;;4.43;3.85;;;23.00;68.90;;;;;;5046204;28;20215;-75
2022/08/19 01:33:42;;;;;;;4.00;3.80;;;22.90;68.80;;;;;;5049648;28;20782;-75
2022/08/19 01:36:13;;;;;;;4.13;3.83;;;22.90;68.60;;;;;;5049765;28;20207;-74
2022/08/19 01:38:42;;;;;;;3.63;3.53;;;22.80;70.00;;;;;;5047508;28;20207;-74
2022/08/19 01:41:09;;;;;;;4.03;3.83;;;22.80;70.00;;;;;;5049718;28;20314;-75
2022/08/19 01:43:36;;;;;;;4.30;4.00;;;22.70;69.60;;;;;;5044649;28;20195;-75
2022/08/19 01:46:03;;;;;;;4.03;3.72;;;22.70;69.20;;;;;;5046340;28;20190;-75
2022/08/19 01:48:34;;;;;;;4.00;3.80;;;22.60;68.60;;;;;;5044985;28;20184;-75
2022/08/19 01:51:00;;;;;;;3.88;3.63;;;22.60;68.80;;;;;;5055991;28;20676;-75
2022/08/19 01:53:25;;;;;;;5.00;4.18;;;22.50;68.90;;;;;;5051169;28;20190;-75
2022/08/19 01:55:51;;;;;;;3.83;3.63;;;22.50;69.00;;;;;;5051821;28;20179;-75
2022/08/19 01:58:22;;;;;;;3.88;3.67;;;22.50;69.80;;;;;;5048090;28;20290;-75
2022/08/19 02:00:48;;;;;;;4.15;3.95;;;22.40;68.60;;;;;;5050894;28;20202;-76
2022/08/19 02:03:14;;;;;;;3.95;3.63;;;22.40;68.80;;;;;;5050248;28;20569;-75
2022/08/19 02:05:41;;;;;;;4.53;4.15;;;22.30;68.80;;;;;;5049662;28;20180;-74
2022/08/19 02:08:07;;;;;;;4.25;3.85;;;22.30;68.70;;;;;;5049937;28;20585;-75
2022/08/19 02:10:33;;;;;;;3.85;3.65;;;22.30;69.00;;;;;;5049044;28;20172;-74
2022/08/19 02:12:59;;;;;;;4.35;3.83;;;22.30;70.20;;;;;;5042662;28;20191;-75
2022/08/19 02:15:25;;;;;;;4.30;4.03;;;22.30;69.90;;;;;;5050047;28;20221;-75
2022/08/19 02:17:51;;;;;;;4.32;4.03;;;22.20;70.20;;;;;;5049980;28;20256;-75
2022/08/19 02:20:17;;;;;;;3.78;3.63;;;22.20;70.50;;;;;;5047787;28;20191;-76
2022/08/19 02:22:44;;;;;;;6.20;3.65;;;22.20;70.80;;;;;;5048382;28;20619;-76
2022/08/19 02:25:14;;;;;;;4.13;3.92;;;22.20;71.70;;;;;;5050086;28;20187;-76
2022/08/19 02:27:40;;;;;;;3.97;3.55;;;22.30;71.40;;;;;;5045504;28;20179;-76
2022/08/19 02:30:09;;;;;;;3.72;3.53;;;22.20;71.90;;;;;;5046363;28;20191;-76
2022/08/19 02:32:35;;;;;;;3.80;3.50;;;22.20;72.00;;;;;;5047527;28;20317;-76
2022/08/19 02:35:01;;;;;;;7.05;3.70;;;22.20;71.90;;;;;;5050846;28;20269;-76
2022/08/19 02:40:12;;;;;;;3.88;3.72;;;22.20;70.90;;;;;;5051671;28;20272;-76
2022/08/19 02:42:37;;;;;;;5.72;3.83;;;22.10;71.00;;;;;;5046391;28;20234;-76
2022/08/19 02:45:04;;;;;;;5.00;3.58;;;22.10;70.90;;;;;;5044968;28;20188;-76
2022/08/19 02:47:30;;;;;;;3.67;3.47;;;22.00;70.90;;;;;;5045675;28;20563;-76
2022/08/19 02:49:56;;;;;;;3.83;3.63;;;22.00;71.40;;;;;;5050408;28;20191;-76
2022/08/19 02:52:23;;;;;;;3.60;3.45;;;22.00;70.80;;;;;;5047533;28;20179;-76
2022/08/19 02:54:49;;;;;;;4.07;3.88;;;22.00;72.20;;;;;;5048993;28;20195;-75
2022/08/19 02:57:15;;;;;;;4.38;4.15;;;22.00;71.40;;;;;;5046014;28;20179;-76
2022/08/19 02:59:40;;;;;;;4.60;3.92;;;22.00;72.50;;;;;;5045369;28;20211;-76
2022/08/19 03:02:06;;;;;;;4.72;4.03;;;21.90;72.70;;;;;;5044849;28;20960;-76
2022/08/19 03:04:32;;;;;;;3.92;3.65;;;21.90;72.80;;;;;;5051434;28;20342;-76
2022/08/19 03:06:57;;;;;;;4.18;3.97;;;21.90;73.60;;;;;;5046660;28;20237;-75
2022/08/19 03:09:23;;;;;;;4.00;3.70;;;21.80;72.90;;;;;;5051724;28;20187;-75
2022/08/19 03:11:50;;;;;;;3.30;3.20;;;21.70;72.50;;;;;;5045015;28;20195;-76
2022/08/19 03:14:16;;;;;;;4.20;3.83;;;21.70;72.40;;;;;;5044445;28;20275;-76
2022/08/19 03:16:45;;;;;;;4.35;4.15;;;21.60;72.00;;;;;;5046842;28;20183;-76
2022/08/19 03:19:11;;;;;;;4.20;3.83;;;21.60;73.10;;;;;;5044439;28;20273;-76
2022/08/19 03:21:37;;;;;;;5.20;4.03;;;21.50;72.90;;;;;;5042209;28;20474;-75
2022/08/19 03:24:06;;;;;;;4.22;3.90;;;21.50;72.50;;;;;;5052657;28;20248;-76
2022/08/19 03:26:33;;;;;;;4.25;3.60;;;21.40;71.80;;;;;;5052568;28;20274;-76
2022/08/19 03:29:03;;;;;;;4.00;3.80;;;21.40;71.70;;;;;;5045594;28;20653;-76
2022/08/19 03:31:30;;;;;;;3.97;3.67;;;21.40;72.00;;;;;;5047547;28;20195;-76
2022/08/19 03:33:57;;;;;;;5.57;3.90;;;21.40;73.40;;;;;;5051985;28;20183;-76
2022/08/19 03:36:25;;;;;;;4.57;3.85;;;21.40;74.00;;;;;;5048359;28;20661;-76
2022/08/19 03:38:54;;;;;;;3.60;3.50;;;21.40;73.80;;;;;;5049910;28;20199;-75
2022/08/19 03:41:41;;;;;;;3.67;3.47;;;21.40;73.90;;;;;;5048629;28;20260;-76
2022/08/19 03:44:08;;;;;;;4.30;4.00;;;21.40;74.00;;;;;;5044307;28;20340;-75
2022/08/19 03:46:34;;;;;;;5.60;3.72;;;21.30;73.70;;;;;;5045354;28;20191;-75
2022/08/19 03:49:08;;;;;;;4.57;4.22;;;21.30;72.90;;;;;;5045549;28;20198;-75
2022/08/19 03:51:36;;;;;;;3.22;3.13;;;21.30;73.10;;;;;;5042636;28;20183;-75
2022/08/19 03:54:04;;;;;;;3.80;3.60;;;21.30;73.00;;;;;;5042273;28;20190;-76
2022/08/19 03:56:31;;;;;;;4.05;3.88;;;21.30;73.00;;;;;;5046169;28;20172;-74
2022/08/19 03:58:58;;;;;;;4.28;4.07;;;21.30;73.50;;;;;;5042474;28;20302;-74
2022/08/19 04:01:27;;;;;;;4.57;4.28;;;21.30;74.20;;;;;;5046860;28;20191;-75
2022/08/19 04:03:53;;;;;;;4.32;4.13;;;21.30;73.30;;;;;;5046022;28;20180;-75
2022/08/19 04:06:28;;;;;;;5.05;4.68;;;21.20;73.80;;;;;;5044991;28;20183;-75
2022/08/19 04:08:55;;;;;;;4.18;3.88;;;21.20;75.20;;;;;;5047577;28;20179;-75
2022/08/19 04:11:24;;;;;;;5.22;4.15;;;21.20;76.50;;;;;;5043590;28;20565;-75
2022/08/19 04:13:52;;;;;;;6.15;4.70;;;21.30;75.70;;;;;;5044056;28;20262;-74
2022/08/19 04:16:19;;;;;;;4.95;4.57;;;21.20;74.70;;;;;;5049655;28;20580;-74
2022/08/19 04:18:46;;;;;;;4.80;4.50;;;21.20;75.10;;;;;;5047264;28;20212;-75
2022/08/19 04:21:17;;;;;;;4.65;4.25;;;21.20;75.10;;;;;;5049321;28;20316;-75
2022/08/19 04:23:42;;;;;;;4.47;4.22;;;21.20;74.00;;;;;;5049267;28;20688;-75
2022/08/19 04:26:15;;;;;;;4.63;4.32;;;21.20;74.80;;;;;;5046762;28;20214;-75
2022/08/19 04:28:42;;;;;;;4.88;4.50;;;21.20;73.70;;;;;;5046798;28;21007;-75
2022/08/19 04:31:14;;;;;;;4.55;4.25;;;21.20;74.00;;;;;;5045593;28;20184;-75
2022/08/19 04:33:40;;;;;;;4.57;4.28;;;21.30;73.80;;;;;;5043378;28;20179;-75
2022/08/19 04:36:06;;;;;;;4.55;4.05;;;21.30;73.90;;;;;;5050310;28;20202;-76
2022/08/19 04:38:31;;;;;;;4.43;4.05;;;21.30;74.50;;;;;;5049042;28;20219;-76
2022/08/19 04:43:41;;;;;;;4.85;4.45;;;21.40;75.40;;;;;;5047305;28;20236;-76
2022/08/19 04:46:12;;;;;;;4.18;3.97;;;21.40;74.70;;;;;;5044996;28;20255;-76
2022/08/19 04:48:39;;;;;;;4.60;4.18;;;21.50;73.70;;;;;;5049394;28;20178;-76
2022/08/19 04:51:11;;;;;;;3.92;3.72;;;21.50;74.10;;;;;;5047889;28;20191;-76
2022/08/19 04:53:37;;;;;;;4.70;4.28;;;21.60;73.30;;;;;;5046038;28;20781;-75
2022/08/19 04:56:13;;;;;;;5.05;4.30;;;21.60;73.80;;;;;;5040336;28;20207;-76
2022/08/19 04:58:44;;;;;;;4.53;4.22;;;21.70;73.50;;;;;;5049149;28;20207;-75
2022/08/19 05:01:13;;;;;;;4.43;4.13;;;21.70;73.90;;;;;;5043874;28;20642;-76
2022/08/19 05:03:39;;;;;;;4.20;3.90;;;21.70;74.50;;;;;;5044806;28;20249;-77
2022/08/19 05:06:11;;;;;;;4.88;4.57;;;21.80;74.40;;;;;;5043930;28;20183;-76
2022/08/19 05:08:42;;;;;;;4.60;4.40;;;21.90;73.90;;;;;;5044426;28;20183;-80
2022/08/19 05:11:44;;;;;;;4.28;3.97;;;21.90;74.60;;;;;;5051566;28;20199;-76
2022/08/19 05:14:12;;;;;;;4.30;4.10;;;22.00;75.50;;;;;;5019888;28;20199;-76
2022/08/19 05:16:38;;;;;;;5.68;5.07;;;22.00;74.50;;;;;;5015232;28;20230;-77
2022/08/19 05:24:35;;;;;;;4.80;4.50;;;22.10;74.70;;;;;;5029716;28;20195;-76
2022/08/19 05:27:02;;;;;;;4.75;4.40;;;22.10;74.60;;;;;;5027155;28;20669;-76
2022/08/19 05:29:29;;;;;;;5.25;4.82;;;22.10;74.20;;;;;;5009299;28;20196;-76
2022/08/19 05:31:55;;;;;;;4.80;4.40;;;22.20;74.10;;;;;;5028670;28;20183;-77
2022/08/19 05:34:24;;;;;;;4.80;4.50;;;22.20;73.90;;;;;;5031584;28;20190;-76
2022/08/19 05:36:55;;;;;;;4.68;4.43;;;22.30;73.90;;;;;;5009826;28;20204;-78
2022/08/19 05:39:21;;;;;;;4.75;4.43;;;22.40;74.00;;;;;;5027267;28;20207;-76
2022/08/19 05:41:50;;;;;;;5.07;4.38;;;22.40;73.80;;;;;;5032338;28;20233;-76
2022/08/19 05:44:16;;;;;;;5.20;4.72;;;22.50;73.60;;;;;;5026446;28;20192;-76
2022/08/19 05:46:46;;;;;;;5.45;5.00;;;22.50;73.90;;;;;;5026135;28;20187;-76
2022/08/19 05:49:13;;;;;;;5.35;4.97;;;22.60;73.80;;;;;;5044721;28;20256;-76
2022/08/19 05:51:38;;;;;;;5.35;4.88;;;22.60;73.60;;;;;;5046454;28;20187;-76
2022/08/19 05:54:06;;;;;;;5.15;4.85;;;22.70;73.50;;;;;;5049655;28;20194;-76
2022/08/19 05:56:36;;;;;;;5.20;5.00;;;22.80;73.90;;;;;;5046905;28;20266;-76
2022/08/19 05:59:02;;;;;;;5.30;4.88;;;22.90;74.00;;;;;;5053637;28;20218;-76
2022/08/19 06:01:28;;;;;;;6.15;5.43;;;22.90;73.60;;;;;;5042600;28;20188;-75
2022/08/19 06:03:53;;;;;;;7.32;5.18;;;22.90;73.60;;;;;;5047591;28;20183;-75
2022/08/19 06:06:20;;;;;;;4.75;4.53;;;23.00;73.40;;;;;;5041188;28;20680;-74
2022/08/19 06:08:50;;;;;;;5.47;5.07;;;23.00;73.40;;;;;;5048482;28;20191;-74
2022/08/19 06:11:35;;;;;;;4.90;4.50;;;23.10;73.40;;;;;;5045383;28;20203;-74
2022/08/19 06:14:10;;;;;;;4.45;4.22;;;23.10;72.60;;;;;;5043732;28;20199;-74
2022/08/19 06:16:39;;;;;;;5.47;5.10;;;23.20;72.70;;;;;;5044625;28;20569;-74
2022/08/19 06:19:09;;;;;;;5.88;5.40;;;23.30;72.90;;;;;;5045819;28;20206;-74
2022/08/19 06:21:37;;;;;;;4.70;4.50;;;23.40;72.70;;;;;;5044668;28;20267;-73
2022/08/19 06:24:06;;;;;;;4.65;4.53;;;23.40;72.70;;;;;;5043112;28;20183;-74
2022/08/19 06:26:34;;;;;;;5.25;4.60;;;23.50;72.70;;;;;;5043986;28;20201;-74
2022/08/19 06:29:00;;;;;;;5.68;5.10;;;23.50;72.70;;;;;;5046130;28;20187;-73
2022/08/19 06:31:27;;;;;;;4.53;4.32;;;23.60;72.60;;;;;;5051486;28;20184;-76
2022/08/19 06:33:53;;;;;;;5.03;4.68;;;23.70;72.40;;;;;;5050937;28;20293;-74
2022/08/19 06:36:31;;;;;;;4.82;4.53;;;23.70;72.30;;;;;;5046490;28;20321;-74
2022/08/19 06:38:58;;;;;;;5.13;4.43;;;23.80;71.70;;;;;;5047093;28;20296;-75
2022/08/19 06:41:26;;;;;;;4.85;4.55;;;23.90;72.40;;;;;;5047959;28;20190;-74
2022/08/19 06:43:54;;;;;;;4.70;4.30;;;24.00;71.90;;;;;;5047402;28;20179;-73
2022/08/19 06:46:20;;;;;;;5.43;5.00;;;24.10;71.90;;;;;;5043662;28;20240;-75
2022/08/19 06:48:47;;;;;;;4.72;4.32;;;24.10;71.70;;;;;;5046170;28;20190;-75
2022/08/19 06:51:16;;;;;;;5.05;4.55;;;24.20;71.70;;;;;;5048967;28;20185;-74
2022/08/19 06:53:46;;;;;;;5.10;4.70;;;24.30;71.60;;;;;;5047284;28;20207;-74
2022/08/19 06:56:12;;;;;;;5.05;4.75;;;24.30;71.40;;;;;;5046438;28;20703;-74
2022/08/19 06:58:38;;;;;;;4.85;4.50;;;24.40;71.60;;;;;;5048896;28;20579;-74
2022/08/19 07:01:04;;;;;;;5.28;4.88;;;24.50;71.50;;;;;;5047932;28;20266;-74
2022/08/19 07:03:32;;;;;;;4.72;4.43;;;24.60;71.60;;;;;;5044713;28;20282;-74
2022/08/19 07:06:03;;;;;;;3.70;3.60;;;24.60;71.40;;;;;;5046084;28;20180;-74
2022/08/19 07:08:29;;;;;;;4.32;4.15;;;24.70;71.00;;;;;;5044994;28;20179;-74
2022/08/19 07:10:55;;;;;;;4.15;4.05;;;24.80;71.50;;;;;;5051804;28;20187;-73
2022/08/19 07:13:22;;;;;;;4.82;4.60;;;24.90;71.50;;;;;;5052360;28;20179;-74
2022/08/19 07:15:49;;;;;;;3.83;3.65;;;24.90;71.00;;;;;;5047491;28;20175;-74
2022/08/19 07:18:17;;;;;;;4.50;4.10;;;25.00;71.00;;;;;;5050714;28;20517;-74
2022/08/19 07:20:43;;;;;;;4.40;3.75;;;25.10;70.90;;;;;;5043041;28;20192;-74
2022/08/19 07:23:09;;;;;;;5.05;4.75;;;25.20;70.80;;;;;;5041096;28;20194;-74
2022/08/19 07:25:37;;;;;;;4.85;4.45;;;25.30;71.30;;;;;;5036611;28;20181;-74
2022/08/19 07:28:03;;;;;;;4.45;4.35;;;25.30;70.30;;;;;;5034678;28;20646;-74
2022/08/19 07:30:29;;;;;;;5.80;5.40;;;25.40;70.40;;;;;;5042970;28;20195;-74
2022/08/19 07:32:56;;;;;;;5.10;4.53;;;25.50;69.70;;;;;;5040465;28;20179;-74
2022/08/19 07:35:23;;;;;;;4.40;4.18;;;25.60;69.90;;;;;;5035531;28;20332;-74
2022/08/19 07:37:49;;;;;;;4.78;4.30;;;25.70;69.60;;;;;;5036200;28;20183;-74
2022/08/19 07:40:15;;;;;;;5.07;4.70;;;25.80;69.60;;;;;;5039928;28;20798;-76
2022/08/19 07:42:43;;;;;;;5.45;4.97;;;25.80;69.70;;;;;;5036211;28;20184;-75
2022/08/19 07:45:09;;;;;;;6.30;4.63;;;25.90;69.70;;;;;;5030364;28;20655;-75
2022/08/19 07:47:36;;;;;;;4.70;4.55;;;26.00;69.40;;;;;;5042963;28;20176;-75
2022/08/19 07:50:04;;;;;;;4.95;4.47;;;26.10;69.40;;;;;;5040655;28;21075;-75
2022/08/19 07:52:30;;;;;;;4.82;4.57;;;26.10;69.10;;;;;;5040280;28;20206;-77
2022/08/19 07:54:57;;;;;;;7.03;4.68;;;26.20;68.90;;;;;;5041678;28;20563;-77
2022/08/19 07:57:23;;;;;;;5.00;4.50;;;26.30;68.50;;;;;;5044207;28;20179;-77
2022/08/19 07:59:49;;;;;;;5.38;4.88;;;26.40;68.20;;;;;;5048207;28;20215;-76
2022/08/19 08:02:15;;;;;;;12.40;5.30;;;26.50;67.90;;;;;;5042003;28;20184;-76
2022/08/19 08:10:10;;;;;;;5.03;4.55;;;26.80;68.00;;;;;;5043927;28;20857;-76
2022/08/19 08:12:42;;;;;;;5.18;4.50;;;26.90;66.90;;;;;;5046667;28;20584;-76
2022/08/19 08:15:11;;;;;;;4.90;4.70;;;26.90;66.60;;;;;;5043538;28;20628;-77
2022/08/19 08:17:39;;;;;;;4.15;3.95;;;27.00;66.10;;;;;;5045875;28;20606;-77
2022/08/19 08:20:06;;;;;;;4.50;4.20;;;27.10;66.60;;;;;;5044218;28;20221;-76
2022/08/19 08:25:22;;;;;;;3.78;3.67;;;27.30;66.70;;;;;;5041122;28;20579;-76
2022/08/19 08:27:52;;;;;;;3.75;3.63;;;27.50;66.70;;;;;;5042966;28;20176;-76
2022/08/19 08:30:24;;;;;;;4.90;4.60;;;27.60;67.00;;;;;;5044112;28;20201;-77
2022/08/19 08:32:50;;;;;;;6.32;4.47;;;27.70;64.60;;;;;;5039635;28;21099;-77
2022/08/19 08:35:19;;;;;;;5.60;4.05;;;27.80;64.50;;;;;;5043603;28;20551;-76
2022/08/19 08:37:49;;;;;;;4.07;3.88;;;28.00;64.70;;;;;;5042922;28;20207;-76
2022/08/19 08:40:34;;;;;;;4.18;3.88;;;28.20;65.00;;;;;;5045540;28;20665;-76
2022/08/19 08:43:08;;;;;;;3.60;3.50;;;28.40;64.90;;;;;;5042483;28;20193;-77
2022/08/19 08:45:41;;;;;;;3.78;3.67;;;28.50;64.50;;;;;;5045845;28;20175;-77
2022/08/19 08:48:37;;;;;;;3.78;3.58;;;28.60;65.10;;;;;;5050072;28;20270;-77
2022/08/19 08:51:09;;;;;;;3.70;3.50;;;28.80;64.00;;;;;;5047987;28;20195;-77
2022/08/19 08:53:38;;;;;;;2.97;2.88;;;29.00;64.60;;;;;;5079940;28;20206;-77
2022/08/19 08:56:08;;;;;;;4.35;4.03;;;29.20;63.40;;;;;;5050119;28;20707;-77
2022/08/19 08:58:48;;;;;;;4.68;4.43;;;29.30;63.20;;;;;;5045228;28;20221;-77
2022/08/19 09:01:15;;;;;;;4.40;4.10;;;29.50;62.20;;;;;;5049360;28;20183;-76
2022/08/19 09:03:44;;;;;;;4.88;4.00;;;29.70;62.80;;;;;;5044040;28;20503;-77
2022/08/19 09:06:49;;;;;;;4.45;4.07;;;29.80;62.80;;;;;;5049373;28;20239;-76
2022/08/19 09:09:18;;;;;;;4.00;3.80;;;30.00;62.60;;;;;;5043757;28;20202;-75
2022/08/19 09:12:00;;;;;;;4.05;3.88;;;30.10;62.30;;;;;;5046792;28;20176;-75
2022/08/19 09:14:41;;;;;;;4.22;4.03;;;30.30;61.50;;;;;;5053001;28;20245;-75
2022/08/19 09:17:10;;;;;;;4.00;3.70;;;30.60;60.80;;;;;;5048519;28;20553;-76
2022/08/19 09:20:11;;;;;;;3.30;3.10;;;30.80;59.80;;;;;;5052869;28;20284;-76
2022/08/19 09:22:38;;;;;;;3.35;3.25;;;31.10;59.20;;;;;;5003884;28;20215;-76
2022/08/19 09:25:05;;;;;;;2.97;2.85;;;31.50;58.20;;;;;;5020099;28;20625;-76
2022/08/19 09:27:31;;;;;;;2.63;2.63;;;31.80;57.10;;;;;;5019531;28;20587;-76
2022/08/19 09:29:58;;;;;;;3.10;3.03;;;32.10;55.50;;;;;;5018898;28;21212;-77
2022/08/19 09:32:25;;;;;;;2.88;2.65;;;32.50;56.00;;;;;;5016820;28;20189;-76
2022/08/19 09:34:54;;;;;;;2.67;2.55;;;32.90;56.00;;;;;;4998249;28;20193;-76
2022/08/19 09:37:21;;;;;;;2.53;2.42;;;33.50;53.70;;;;;;5017850;28;20250;-76
2022/08/19 09:39:46;;;;;;;4.63;2.38;;;34.10;52.20;;;;;;5018407;28;20298;-76
2022/08/19 09:42:13;;;;;;;2.20;2.20;;;34.70;51.30;;;;;;5018688;28;20320;-76
2022/08/19 09:44:40;;;;;;;2.47;2.45;;;35.30;51.40;;;;;;5017659;28;20188;-76
2022/08/19 09:47:06;;;;;;;2.80;2.70;;;36.10;51.50;;;;;;5018371;28;20575;-77
2022/08/19 09:49:33;;;;;;;2.55;2.45;;;36.80;51.40;;;;;;5001355;28;20212;-77
2022/08/19 09:51:59;;;;;;;2.50;2.40;;;37.50;50.10;;;;;;5017637;28;20758;-77
2022/08/19 09:54:26;;;;;;;2.65;2.50;;;38.20;48.60;;;;;;5017814;28;20192;-77
2022/08/19 09:56:55;;;;;;;2.40;2.40;;;38.90;48.30;;;;;;5017075;28;20184;-77
2022/08/19 09:59:22;;;;;;;2.35;2.25;;;39.50;45.50;;;;;;5029985;28;20245;-77
2022/08/19 10:01:47;;;;;;;2.30;2.10;;;40.00;45.40;;;;;;5047335;28;21051;-76
2022/08/19 10:04:13;;;;;;;2.08;2.08;;;40.50;44.60;;;;;;5048878;28;20209;-77
2022/08/19 10:06:39;;;;;;;2.72;2.22;;;40.70;46.00;;;;;;5044233;28;20702;-77
2022/08/19 10:09:07;;;;;;;2.22;2.17;;;40.80;44.30;;;;;;5041398;28;20592;-77
2022/08/19 10:11:37;;;;;;;4.35;2.45;;;41.10;42.70;;;;;;5045058;28;20501;-77
2022/08/19 10:14:07;;;;;;;3.53;1.77;;;41.20;44.80;;;;;;5048779;28;20178;-76
2022/08/19 10:16:33;;;;;;;2.22;2.13;;;41.30;45.50;;;;;;5046602;28;20232;-76
2022/08/19 10:19:00;;;;;;;2.20;2.20;;;41.70;43.00;;;;;;5046779;28;20232;-76
2022/08/19 10:21:28;;;;;;;2.65;2.55;;;41.90;44.40;;;;;;5048095;28;20190;-76
2022/08/19 10:23:57;;;;;;;2.25;2.15;;;42.00;43.80;;;;;;5051101;28;20266;-75
2022/08/19 10:26:28;;;;;;;2.05;2.05;;;42.30;42.70;;;;;;5046939;28;20269;-76
2022/08/19 10:28:54;;;;;;;2.90;2.78;;;42.50;44.00;;;;;;5044589;28;20182;-75
2022/08/19 10:31:26;;;;;;;2.55;2.45;;;42.40;43.90;;;;;;5048014;28;20740;-75
2022/08/19 10:33:57;;;;;;;2.20;2.20;;;42.60;42.30;;;;;;5048140;28;20214;-75
2022/08/19 10:36:26;;;;;;;4.90;2.35;;;42.90;41.50;;;;;;5046619;28;20194;-76
2022/08/19 10:38:58;;;;;;;2.88;2.78;;;43.30;44.40;;;;;;5050531;28;20259;-76
2022/08/19 10:41:26;;;;;;;2.58;2.58;;;43.80;45.20;;;;;;5053872;28;20274;-76
2022/08/19 10:43:56;;;;;;;2.60;2.40;;;44.40;44.10;;;;;;5051869;28;20232;-76
2022/08/19 10:46:24;;;;;;;3.22;3.10;;;44.80;43.70;;;;;;5051706;28;20714;-76
2022/08/19 10:48:51;;;;;;;2.38;2.38;;;45.10;41.20;;;;;;5051518;28;20277;-76
2022/08/19 10:54:03;;;;;;;2.88;2.83;;;45.60;42.20;;;;;;5051528;28;21117;-76
2022/08/19 10:59:15;;;;;;;3.25;3.15;;;46.40;40.60;;;;;;5052109;28;20233;-76
2022/08/19 11:01:43;;;;;;;3.35;2.90;;;46.80;41.50;;;;;;5047459;28;20194;-77
2022/08/19 11:04:10;;;;;;;3.00;2.90;;;46.70;38.30;;;;;;5050616;28;20651;-78
2022/08/19 11:06:41;;;;;;;3.22;3.08;;;46.60;39.50;;;;;;5049845;28;20724;-78
2022/08/19 11:09:07;;;;;;;3.10;3.00;;;46.30;39.20;;;;;;5047546;28;20579;-77
2022/08/19 11:11:39;;;;;;;3.30;3.08;;;46.20;42.10;;;;;;5050206;28;20660;-76
2022/08/19 11:14:09;;;;;;;3.67;3.10;;;46.20;40.60;;;;;;5047479;28;20175;-77
2022/08/19 11:16:37;;;;;;;2.85;2.65;;;46.30;41.50;;;;;;5051959;28;20179;-77
2022/08/19 11:19:02;;;;;;;3.03;2.83;;;46.50;40.20;;;;;;5050573;28;20233;-75
2022/08/19 11:21:34;;;;;;;2.92;2.85;;;46.70;40.50;;;;;;5050150;28;20714;-76
2022/08/19 11:24:06;;;;;;;3.10;3.00;;;46.50;38.70;;;;;;5049399;28;20193;-76
2022/08/19 11:26:35;;;;;;;2.90;2.80;;;46.30;39.30;;;;;;5046049;28;20183;-76
2022/08/19 11:29:03;;;;;;;2.70;2.70;;;46.10;40.70;;;;;;5050937;28;20582;-76
2022/08/19 11:31:32;;;;;;;3.22;2.78;;;45.90;40.30;;;;;;5049080;28;20186;-76
2022/08/19 11:33:59;;;;;;;2.75;2.60;;;45.80;38.80;;;;;;5054171;28;20178;-77
2022/08/19 11:36:26;;;;;;;3.20;3.10;;;45.70;39.70;;;;;;5047341;28;20206;-77
2022/08/19 11:38:52;;;;;;;2.60;2.50;;;45.70;40.20;;;;;;5049137;28;20430;-77
2022/08/19 11:41:23;;;;;;;2.90;2.85;;;45.70;39.80;;;;;;5051684;28;20226;-77
2022/08/19 11:43:49;;;;;;;2.60;2.60;;;46.00;41.30;;;;;;5045255;28;20191;-76
2022/08/19 11:46:16;;;;;;;3.85;2.72;;;46.30;38.40;;;;;;5050031;28;20221;-76
2022/08/19 11:48:43;;;;;;;2.80;2.80;;;46.40;40.10;;;;;;5051423;28;20214;-76
2022/08/19 11:51:15;;;;;;;3.35;3.03;;;46.60;39.10;;;;;;5047164;28;20175;-76
2022/08/19 11:53:41;;;;;;;2.95;2.85;;;46.70;40.90;;;;;;5045196;28;20367;-77
2022/08/19 11:56:08;;;;;;;3.15;3.03;;;47.00;38.60;;;;;;5050178;28;20201;-78
2022/08/19 11:58:35;;;;;;;3.20;3.10;;;47.20;38.70;;;;;;5045988;28;20612;-77
2022/08/19 12:01:04;;;;;;;3.38;3.03;;;47.50;38.50;;;;;;5046695;28;20186;-78
2022/08/19 12:03:30;;;;;;;3.15;3.15;;;47.80;38.50;;;;;;5046138;28;20225;-77
2022/08/19 12:05:56;;;;;;;3.67;3.45;;;47.70;38.00;;;;;;5048828;28;20178;-77
2022/08/19 12:08:22;;;;;;;2.60;2.60;;;47.60;39.80;;;;;;5049901;28;20217;-77
2022/08/19 12:10:48;;;;;;;3.13;2.92;;;47.60;38.30;;;;;;5047573;28;20178;-76
2022/08/19 12:13:18;;;;;;;2.97;2.83;;;47.40;37.80;;;;;;5050811;28;20190;-76
2022/08/19 12:15:45;;;;;;;3.05;2.97;;;47.10;38.50;;;;;;5045919;28;20185;-76
2022/08/19 12:18:13;;;;;;;2.97;2.88;;;46.90;38.00;;;;;;5045789;28;20345;-77
2022/08/19 12:20:40;;;;;;;3.30;3.20;;;46.60;38.40;;;;;;5048462;28;20585;-76
2022/08/19 12:23:09;;;;;;;3.05;2.92;;;46.50;39.70;;;;;;5052880;28;20194;-77
2022/08/19 12:25:35;;;;;;;3.85;3.63;;;46.50;38.50;;;;;;5052121;28;20182;-77
2022/08/19 12:28:02;;;;;;;3.03;2.92;;;46.50;38.80;;;;;;5054869;28;20688;-76
2022/08/19 12:30:28;;;;;;;3.28;2.90;;;46.60;39.30;;;;;;5053899;28;20183;-77
2022/08/19 12:32:54;;;;;;;2.90;2.90;;;46.80;39.00;;;;;;5052738;28;20673;-77
2022/08/19 12:35:20;;;;;;;3.33;3.13;;;47.00;38.40;;;;;;5051780;28;20201;-76
2022/08/19 12:37:47;;;;;;;3.03;3.03;;;47.30;40.60;;;;;;5053806;28;20222;-76
2022/08/19 12:40:15;;;;;;;3.45;3.25;;;47.60;38.70;;;;;;5051113;28;20183;-76
2022/08/19 12:42:43;;;;;;;3.47;3.20;;;48.00;38.20;;;;;;5053637;28;20193;-77
2022/08/19 12:45:11;;;;;;;3.30;2.92;;;48.40;37.40;;;;;;5050753;28;20183;-77
2022/08/19 12:47:37;;;;;;;3.05;2.95;;;48.80;38.10;;;;;;5050484;28;20824;-75
2022/08/19 12:50:08;;;;;;;3.35;2.95;;;48.80;36.50;;;;;;5051978;28;20265;-76
2022/08/19 12:52:36;;;;;;;3.33;3.30;;;48.70;37.10;;;;;;5053877;28;20209;-76
2022/08/19 12:55:05;;;;;;;3.40;3.30;;;48.80;38.40;;;;;;5051464;28;20270;-76
2022/08/19 12:57:33;;;;;;;2.88;2.78;;;49.10;37.80;;;;;;5055430;28;20182;-75
2022/08/19 13:00:11;;;;;;;2.90;2.90;;;49.40;37.30;;;;;;5052236;28;20273;-75
2022/08/19 13:02:38;;;;;;;2.97;2.88;;;49.50;36.70;;;;;;5056508;28;20171;-76
2022/08/19 13:05:08;;;;;;;3.25;3.25;;;49.70;38.30;;;;;;5053869;28;20182;-76
2022/08/19 13:07:34;;;;;;;2.95;2.72;;;50.00;38.30;;;;;;5056862;28;20171;-76
2022/08/19 13:10:00;;;;;;;2.95;2.85;;;50.30;39.20;;;;;;5050663;28;20222;-76
2022/08/19 13:12:26;;;;;;;3.42;3.35;;;50.50;36.80;;;;;;5054811;28;20201;-76
2022/08/19 13:14:53;;;;;;;3.38;2.90;;;50.50;36.10;;;;;;5054087;28;20174;-76
2022/08/19 13:17:20;;;;;;;3.45;3.30;;;50.50;36.00;;;;;;5051490;28;20183;-76
2022/08/19 13:19:46;;;;;;;3.28;3.08;;;50.60;35.60;;;;;;5054906;28;20209;-76